createdAt,value
2023-04-18T00:00:19.229Z,11.75
2023-04-18T00:03:21.906Z,13.68
2023-04-18T00:06:23.673Z,15.15
2023-04-18T00:09:25.578Z,12.45
2023-04-18T00:12:27.255Z,13.23
2023-04-18T00:15:29.358Z,12.25
2023-04-18T00:18:31.165Z,11.32
2023-04-18T00:21:33.028Z,13.75
2023-04-18T00:24:34.604Z,11.57
2023-04-18T00:27:37.642Z,9.68
2023-04-18T00:30:39.421Z,13.00
2023-04-18T00:33:41.038Z,10.27
2023-04-18T00:36:42.580Z,15.93
2023-04-18T00:39:44.158Z,10.43
2023-04-18T00:42:45.715Z,13.65
2023-04-18T00:45:49.055Z,12.95
2023-04-18T00:48:50.903Z,10.73
2023-04-18T00:51:53.612Z,13.35
2023-04-18T00:54:55.720Z,13.10
2023-04-18T00:57:57.391Z,13.68
2023-04-18T01:00:59.610Z,15.30
2023-04-18T01:04:01.363Z,15.10
2023-04-18T01:07:03.737Z,12.82
2023-04-18T01:10:06.257Z,13.77
2023-04-18T01:13:18.694Z,13.50
2023-04-18T01:16:20.766Z,14.95
2023-04-18T01:19:24.606Z,13.30
2023-04-18T01:22:26.653Z,13.52
2023-04-18T01:25:28.321Z,12.52
2023-04-18T01:31:37.882Z,10.13
2023-04-18T01:34:39.663Z,9.95
2023-04-18T01:37:41.276Z,14.63
2023-04-18T01:40:42.955Z,14.82
2023-04-18T01:43:44.513Z,11.57
2023-04-18T01:46:46.138Z,11.40
2023-04-18T01:49:48.335Z,12.05
2023-04-18T01:52:50.085Z,12.55
2023-04-18T01:55:51.738Z,13.77
2023-04-18T01:58:53.302Z,11.73
2023-04-18T02:01:55.050Z,12.45
2023-04-18T02:04:56.877Z,12.07
2023-04-18T02:07:59.194Z,16.95
2023-04-18T02:11:01.351Z,12.23
2023-04-18T02:14:03.182Z,12.98
2023-04-18T02:17:05.057Z,10.77
2023-04-18T02:20:08.304Z,16.80
2023-04-18T02:26:11.594Z,14.95
2023-04-18T02:29:13.156Z,13.30
2023-04-18T02:32:15.512Z,9.82
2023-04-18T02:35:22.839Z,11.52
2023-04-18T02:38:24.471Z,12.73
2023-04-18T02:41:29.855Z,14.98
2023-04-18T02:44:31.420Z,12.05
2023-04-18T02:47:40.476Z,11.57
2023-04-18T02:50:45.481Z,15.20
2023-04-18T02:53:48.253Z,12.23
2023-04-18T02:56:50.276Z,14.27
2023-04-18T02:59:59.471Z,10.63
2023-04-18T03:03:06.977Z,11.73
2023-04-18T03:06:14.048Z,11.85
2023-04-18T03:09:16.859Z,14.18
2023-04-18T03:12:24.175Z,12.35
2023-04-18T03:15:27.110Z,15.00
2023-04-18T03:18:29.345Z,11.95
2023-04-18T03:21:33.852Z,13.30
2023-04-18T03:24:35.589Z,14.82
2023-04-18T03:27:40.040Z,14.93
2023-04-18T03:30:42.822Z,18.42
2023-04-18T03:33:45.676Z,15.77
2023-04-18T03:36:48.233Z,15.70
2023-04-18T03:39:50.307Z,20.35
2023-04-18T03:42:52.548Z,16.67
2023-04-18T03:45:54.996Z,18.90
2023-04-18T03:48:56.710Z,22.80
2023-04-18T03:51:58.412Z,20.58
2023-04-18T03:55:00.279Z,21.30
2023-04-18T03:58:07.753Z,24.05
2023-04-18T04:01:09.733Z,23.23
2023-04-18T04:04:15.723Z,21.35
2023-04-18T04:07:17.886Z,23.90
2023-04-18T04:10:19.750Z,25.40
2023-04-18T04:13:23.176Z,23.08
2023-04-18T04:16:25.316Z,25.83
2023-04-18T04:19:29.521Z,26.67
2023-04-18T04:22:53.945Z,24.50
2023-04-18T04:25:58.648Z,25.00
2023-04-18T04:29:19.103Z,26.08
2023-04-18T04:32:22.712Z,21.00
2023-04-18T04:35:24.618Z,26.17
2023-04-18T04:38:27.480Z,23.20
2023-04-18T04:41:29.489Z,21.60
2023-04-18T04:44:31.286Z,23.48
2023-04-18T04:47:34.218Z,24.52
2023-04-18T04:50:42.220Z,20.95
2023-04-18T04:53:46.417Z,21.23
2023-04-18T04:56:48.153Z,23.50
2023-04-18T04:59:49.876Z,25.67
2023-04-18T05:02:57.005Z,20.90
2023-04-18T05:06:00.748Z,20.75
2023-04-18T05:09:02.372Z,20.90
2023-04-18T05:12:04.544Z,19.67
2023-04-18T05:15:06.927Z,18.92
2023-04-18T05:18:08.706Z,20.27
2023-04-18T05:21:10.532Z,22.38
2023-04-18T05:24:13.403Z,20.00
2023-04-18T05:27:17.199Z,22.17
2023-04-18T05:30:19.843Z,18.38
2023-04-18T05:33:21.685Z,16.13
2023-04-18T05:36:23.796Z,18.08
2023-04-18T05:39:25.508Z,18.98
2023-04-18T05:42:27.379Z,15.48
2023-04-18T05:45:29.013Z,18.38
2023-04-18T05:48:31.050Z,15.80
2023-04-18T05:51:32.710Z,18.30
2023-04-18T05:54:34.426Z,18.45
2023-04-18T05:57:36.144Z,14.32
2023-04-18T06:00:37.825Z,15.07
2023-04-18T06:03:40.116Z,14.90
2023-04-18T06:06:42.180Z,13.40
2023-04-18T06:09:43.881Z,14.60
2023-04-18T06:12:45.725Z,16.40
2023-04-18T06:15:47.455Z,15.63
2023-04-18T06:18:49.096Z,15.40
2023-04-18T06:21:51.062Z,16.40
2023-04-18T06:24:52.725Z,13.60
2023-04-18T06:27:54.418Z,16.30
2023-04-18T06:30:56.131Z,14.38
2023-04-18T06:33:57.816Z,20.65
2023-04-18T06:36:59.754Z,13.68
2023-04-18T06:40:01.392Z,12.73
2023-04-18T06:43:03.152Z,15.35
2023-04-18T06:46:05.417Z,15.10
2023-04-18T06:49:07.173Z,17.15
2023-04-18T06:52:08.791Z,14.60
2023-04-18T06:55:11.457Z,13.50
2023-04-18T06:58:16.085Z,13.75
2023-04-18T07:01:19.569Z,17.30
2023-04-18T07:04:21.385Z,16.17
2023-04-18T07:07:23.375Z,12.88
2023-04-18T07:10:24.995Z,14.90
2023-04-18T07:13:27.216Z,13.52
2023-04-18T07:16:29.181Z,14.55
2023-04-18T07:19:30.819Z,13.38
2023-04-18T07:22:32.430Z,13.35
2023-04-18T07:25:34.030Z,15.60
2023-04-18T07:28:35.719Z,16.92
2023-04-18T07:31:37.400Z,13.20
2023-04-18T07:34:40.303Z,16.30
2023-04-18T07:37:42.072Z,14.98
2023-04-18T07:40:45.580Z,17.88
2023-04-18T07:43:47.293Z,14.43
2023-04-18T07:46:49.408Z,12.63
2023-04-18T07:49:51.095Z,12.82
2023-04-18T07:52:52.768Z,15.35
2023-04-18T07:55:54.783Z,13.77
2023-04-18T07:58:56.479Z,13.93
2023-04-18T08:01:58.218Z,16.63
2023-04-18T08:05:00.565Z,12.00
2023-04-18T08:08:02.660Z,12.60
2023-04-18T08:11:04.430Z,15.18
2023-04-18T08:14:06.115Z,14.13
2023-04-18T08:17:07.775Z,13.10
2023-04-18T08:20:09.666Z,11.80
2023-04-18T08:23:12.962Z,12.23
2023-04-18T08:26:15.119Z,12.85
2023-04-18T08:29:17.211Z,13.20
2023-04-18T08:32:18.999Z,12.68
2023-04-18T08:35:20.828Z,11.82
2023-04-18T08:38:22.528Z,10.52
2023-04-18T08:41:24.959Z,10.48
2023-04-18T08:44:30.118Z,9.50
2023-04-18T08:47:32.031Z,8.23
2023-04-18T08:50:34.061Z,11.23
2023-04-18T08:53:35.941Z,10.15
2023-04-18T08:56:37.696Z,9.77
2023-04-18T08:59:40.192Z,12.30
2023-04-18T09:02:47.001Z,8.43
2023-04-18T09:06:08.292Z,7.50
2023-04-18T09:09:10.041Z,10.30
2023-04-18T09:12:15.749Z,7.75
2023-04-18T09:15:20.464Z,10.93
2023-04-18T09:18:22.140Z,9.60
2023-04-18T09:21:23.770Z,7.57
2023-04-18T09:24:27.187Z,6.57
2023-04-18T09:27:34.831Z,10.15
2023-04-18T09:30:37.770Z,8.00
2023-04-18T09:33:43.348Z,8.73
2023-04-18T09:36:45.008Z,7.57
2023-04-18T09:39:50.964Z,7.22
2023-04-18T09:42:54.517Z,6.82
2023-04-18T09:45:56.514Z,7.22
2023-04-18T09:48:58.265Z,7.78
2023-04-18T09:52:02.943Z,8.15
2023-04-18T09:55:06.926Z,9.13
2023-04-18T09:58:09.472Z,7.25
2023-04-18T10:01:13.409Z,6.93
2023-04-18T10:04:17.319Z,7.78
2023-04-18T10:07:20.936Z,9.65
2023-04-18T10:10:23.753Z,9.35
2023-04-18T10:13:27.174Z,8.35
2023-04-18T10:16:29.592Z,8.95
2023-04-18T10:19:31.853Z,7.28
2023-04-18T10:22:34.398Z,8.52
2023-04-18T10:25:39.260Z,10.10
2023-04-18T10:28:57.686Z,9.55
2023-04-18T10:32:06.225Z,9.48
2023-04-18T10:35:08.281Z,7.22
2023-04-18T10:38:17.410Z,7.03
2023-04-18T10:41:23.484Z,8.65
2023-04-18T10:44:27.304Z,8.88
2023-04-18T10:47:31.537Z,10.93
2023-04-18T10:50:33.340Z,10.02
2023-04-18T10:53:34.980Z,12.48
2023-04-18T10:56:37.244Z,12.20
2023-04-18T10:59:42.740Z,11.60
2023-04-18T11:02:53.953Z,11.85
2023-04-18T11:06:02.815Z,11.60
2023-04-18T11:09:14.592Z,12.05
2023-04-18T11:12:16.369Z,13.10
2023-04-18T11:15:22.794Z,15.07
2023-04-18T11:18:41.039Z,12.43
2023-04-18T11:21:42.749Z,13.35
2023-04-18T11:24:44.950Z,14.48
2023-04-18T11:27:48.872Z,12.82
2023-04-18T11:30:51.093Z,13.77
2023-04-18T11:33:56.059Z,13.25
2023-04-18T11:36:57.996Z,14.80
2023-04-18T11:39:59.777Z,12.45
2023-04-18T11:43:02.653Z,14.45
2023-04-18T11:46:04.400Z,14.93
2023-04-18T11:49:06.184Z,14.35
2023-04-18T11:52:13.777Z,13.30
2023-04-18T11:55:24.589Z,13.32
2023-04-18T11:58:36.384Z,15.32
2023-04-18T12:01:38.204Z,15.00
2023-04-18T12:05:00.354Z,14.50
2023-04-18T12:08:10.017Z,15.65
2023-04-18T12:11:20.539Z,12.85
2023-04-18T12:14:22.752Z,16.08
2023-04-18T12:17:27.228Z,17.27
2023-04-18T12:20:46.324Z,17.73
2023-04-18T12:23:48.175Z,13.98
2023-04-18T12:26:49.941Z,15.32
2023-04-18T12:29:51.682Z,17.27
2023-04-18T12:32:55.927Z,16.73
2023-04-18T12:35:58.053Z,15.43
2023-04-18T12:38:59.784Z,19.90
2023-04-18T12:42:02.307Z,16.10
2023-04-18T12:45:07.648Z,15.10
2023-04-18T12:48:09.451Z,15.75
2023-04-18T12:51:11.098Z,14.80
2023-04-18T12:54:13.004Z,14.50
2023-04-18T12:57:14.738Z,13.50
2023-04-18T13:00:16.443Z,14.60
2023-04-18T13:03:18.191Z,14.38
2023-04-18T13:06:20.363Z,14.48
2023-04-18T13:09:22.221Z,14.60
2023-04-18T13:12:25.666Z,14.27
2023-04-18T13:15:29.773Z,13.02
2023-04-18T13:18:31.404Z,13.80
2023-04-18T13:21:33.042Z,14.73
2023-04-18T13:24:34.713Z,12.20
2023-04-18T13:27:41.941Z,12.85
2023-04-18T13:30:43.857Z,12.50
2023-04-18T13:33:45.481Z,12.77
2023-04-18T13:36:47.111Z,11.90
2023-04-18T13:39:49.298Z,11.63
2023-04-18T13:42:53.314Z,12.13
2023-04-18T13:45:55.066Z,12.00
2023-04-18T13:48:57.186Z,13.20
2023-04-18T13:51:59.004Z,13.10
2023-04-18T13:55:01.103Z,11.05
2023-04-18T13:58:02.782Z,11.97
2023-04-18T14:01:04.612Z,12.93
2023-04-18T14:04:06.725Z,11.52
2023-04-18T14:07:09.104Z,12.05
2023-04-18T14:10:11.223Z,11.37
2023-04-18T14:13:12.878Z,9.75
2023-04-18T14:16:15.793Z,9.77
2023-04-18T14:19:17.975Z,9.02
2023-04-18T14:22:19.623Z,8.83
2023-04-18T14:25:22.247Z,8.77
2023-04-18T14:28:25.041Z,7.55
2023-04-18T14:31:28.189Z,8.77
2023-04-18T14:34:31.210Z,9.43
2023-04-18T14:37:35.532Z,9.57
2023-04-18T14:40:37.534Z,8.43
2023-04-18T14:43:39.199Z,7.93
2023-04-18T14:46:42.426Z,7.60
2023-04-18T14:49:44.096Z,8.63
2023-04-18T14:52:45.713Z,9.85
2023-04-18T14:55:47.323Z,7.25
2023-04-18T14:58:48.986Z,7.35
2023-04-18T15:01:50.818Z,8.65
2023-04-18T15:04:53.495Z,9.10
2023-04-18T15:07:56.414Z,8.07
2023-04-18T15:10:58.228Z,8.70
2023-04-18T15:13:59.980Z,9.20
2023-04-18T15:17:03.050Z,7.82
2023-04-18T15:20:07.984Z,9.57
2023-04-18T15:23:13.639Z,11.05
2023-04-18T15:26:15.895Z,9.50
2023-04-18T15:29:17.744Z,12.50
2023-04-18T15:32:19.584Z,9.75
2023-04-18T15:35:21.476Z,10.05
2023-04-18T15:38:23.083Z,7.90
2023-04-18T15:41:24.698Z,9.13
2023-04-18T15:44:26.698Z,11.30
2023-04-18T15:47:28.797Z,9.30
2023-04-18T15:50:32.773Z,9.00
2023-04-18T15:53:35.078Z,9.57
2023-04-18T15:56:37.183Z,9.93
2023-04-18T15:59:38.814Z,9.60
2023-04-18T16:02:40.496Z,7.97
2023-04-18T16:05:42.479Z,7.60
2023-04-18T16:08:44.476Z,8.15
2023-04-18T16:11:46.125Z,10.15
2023-04-18T16:14:47.795Z,12.85
2023-04-18T16:17:49.453Z,9.15
2023-04-18T16:20:51.784Z,8.75
2023-04-18T16:23:53.708Z,9.07
2023-04-18T16:26:57.918Z,10.60
2023-04-18T16:29:59.525Z,8.18
2023-04-18T16:33:01.332Z,8.15
2023-04-18T16:36:03.150Z,9.00
2023-04-18T16:39:05.062Z,9.20
2023-04-18T16:42:06.602Z,7.55
2023-04-18T16:45:08.653Z,8.35
2023-04-18T16:48:10.293Z,9.27
2023-04-18T16:51:13.093Z,8.68
2023-04-18T16:54:14.873Z,11.23
2023-04-18T16:57:17.645Z,9.38
2023-04-18T17:00:19.203Z,6.72
2023-04-18T17:03:21.155Z,7.57
2023-04-18T17:06:25.403Z,8.85
2023-04-18T17:09:27.644Z,9.95
2023-04-18T17:12:32.548Z,10.00
2023-04-18T17:15:36.300Z,8.23
2023-04-18T17:18:38.204Z,9.00
2023-04-18T17:21:40.117Z,9.23
2023-04-18T17:24:43.520Z,9.00
2023-04-18T17:30:46.853Z,8.45
2023-04-18T17:33:50.718Z,6.72
2023-04-18T17:36:52.367Z,8.40
2023-04-18T17:39:54.603Z,11.10
2023-04-18T17:42:56.657Z,8.50
2023-04-18T17:46:00.250Z,10.13
2023-04-18T17:49:02.254Z,9.10
2023-04-18T17:52:04.177Z,8.35
2023-04-18T17:55:06.263Z,8.43
2023-04-18T17:58:08.066Z,8.55
2023-04-18T18:01:19.608Z,9.45
2023-04-18T18:04:23.071Z,7.60
2023-04-18T18:07:26.532Z,8.23
2023-04-18T18:10:28.523Z,9.75
2023-04-18T18:13:30.211Z,12.93
2023-04-18T18:16:31.934Z,7.95
2023-04-18T18:19:36.143Z,10.15
2023-04-18T18:22:37.733Z,9.77
2023-04-18T18:25:40.165Z,9.32
2023-04-18T18:28:41.869Z,10.02
2023-04-18T18:31:43.492Z,10.70
2023-04-18T18:34:45.661Z,10.77
2023-04-18T18:37:47.416Z,9.82
2023-04-18T18:40:49.148Z,8.98
2023-04-18T18:43:51.459Z,9.60
2023-04-18T18:46:53.226Z,10.33
2023-04-18T18:49:54.928Z,9.07
2023-04-18T18:52:56.468Z,13.05
2023-04-18T18:55:58.093Z,10.32
2023-04-18T18:58:59.687Z,9.23
2023-04-18T19:02:01.763Z,10.50
2023-04-18T19:05:03.949Z,13.18
2023-04-18T19:08:06.527Z,10.55
2023-04-18T19:11:08.769Z,10.82
2023-04-18T19:14:10.423Z,10.60
2023-04-18T19:17:12.115Z,10.20
2023-04-18T19:20:13.778Z,10.25
2023-04-18T19:23:16.836Z,9.18
2023-04-18T19:26:18.584Z,12.13
2023-04-18T19:29:20.140Z,11.50
2023-04-18T19:32:21.862Z,9.63
2023-04-18T19:35:23.651Z,10.50
2023-04-18T19:38:25.402Z,9.82
2023-04-18T19:41:29.477Z,10.95
2023-04-18T19:44:32.394Z,9.93
2023-04-18T19:47:34.398Z,11.65
2023-04-18T19:50:39.382Z,10.20
2023-04-18T19:53:40.933Z,12.57
2023-04-18T19:56:42.502Z,12.15
2023-04-18T19:59:44.218Z,11.45
2023-04-18T20:02:45.962Z,13.55
2023-04-18T20:05:47.641Z,15.18
2023-04-18T20:08:49.192Z,12.35
2023-04-18T20:11:50.820Z,11.32
2023-04-18T20:14:55.049Z,10.07
2023-04-18T20:17:56.633Z,12.13
2023-04-18T20:20:58.445Z,13.70
2023-04-18T20:24:00.031Z,9.55
2023-04-18T20:27:02.069Z,10.80
2023-04-18T20:30:04.543Z,10.80
2023-04-18T20:33:06.198Z,11.90
2023-04-18T20:36:08.251Z,11.77
2023-04-18T20:39:09.855Z,11.60
2023-04-18T20:42:14.550Z,11.38
2023-04-18T20:45:16.299Z,12.48
2023-04-18T20:48:18.478Z,10.73
2023-04-18T20:51:21.771Z,11.70
2023-04-18T20:57:24.979Z,12.73
2023-04-18T21:00:26.623Z,11.07
2023-04-18T21:03:28.356Z,11.43
2023-04-18T21:06:30.075Z,9.95
2023-04-18T21:09:36.377Z,9.05
2023-04-18T21:12:38.012Z,11.43
2023-04-18T21:15:41.835Z,12.77
2023-04-18T21:18:43.415Z,10.88
2023-04-18T21:21:45.150Z,9.55
2023-04-18T21:24:46.961Z,10.00
2023-04-18T21:27:50.593Z,10.13
2023-04-18T21:30:52.318Z,10.13
2023-04-18T21:33:55.732Z,11.18
2023-04-18T21:40:00.535Z,9.18
2023-04-18T21:43:02.135Z,9.15
2023-04-18T21:46:03.774Z,9.27
2023-04-18T21:49:06.702Z,9.00
2023-04-18T21:52:09.066Z,11.43
2023-04-18T21:55:10.738Z,10.07
2023-04-18T21:58:12.787Z,11.32
2023-04-18T22:01:14.375Z,9.90
2023-04-18T22:04:16.911Z,10.60
2023-04-18T22:07:18.805Z,10.23
2023-04-18T22:10:22.691Z,10.77
2023-04-18T22:13:25.608Z,9.63
2023-04-18T22:16:28.772Z,11.25
2023-04-18T22:19:31.304Z,10.63
2023-04-18T22:22:32.905Z,12.75
2023-04-18T22:25:35.116Z,13.63
2023-04-18T22:28:37.076Z,13.27
2023-04-18T22:31:38.646Z,12.38
2023-04-18T22:34:40.551Z,12.73
2023-04-18T22:37:42.235Z,10.30
2023-04-18T22:40:44.222Z,13.30
2023-04-18T22:43:45.796Z,14.23
2023-04-18T22:46:48.252Z,14.77
2023-04-18T22:49:49.832Z,13.60
2023-04-18T22:52:51.569Z,13.85
2023-04-18T22:55:53.412Z,13.30
2023-04-18T22:58:54.976Z,12.45
2023-04-18T23:01:57.295Z,16.23
2023-04-18T23:04:59.730Z,14.83
2023-04-18T23:08:01.587Z,12.33
2023-04-18T23:11:03.182Z,13.85
2023-04-18T23:14:04.744Z,16.70
2023-04-18T23:17:06.314Z,16.52
2023-04-18T23:20:08.267Z,14.43
2023-04-18T23:23:09.843Z,16.83
2023-04-18T23:26:14.046Z,17.35
2023-04-18T23:29:15.653Z,15.70
2023-04-18T23:32:17.239Z,15.98
2023-04-18T23:35:18.988Z,16.83
2023-04-18T23:38:20.634Z,17.13
2023-04-18T23:41:22.250Z,16.75
2023-04-18T23:44:24.197Z,15.40
2023-04-18T23:47:25.955Z,15.43
2023-04-18T23:50:27.518Z,14.63
2023-04-18T23:53:29.260Z,15.98
2023-04-18T23:56:30.901Z,16.45
2023-04-18T23:59:32.547Z,14.18
